createdAt,value
2019-03-22T00:01:41.011Z,12.10
2019-03-22T00:04:13.705Z,12.10
2019-03-22T00:06:46.166Z,12.00
2019-03-22T00:09:19.027Z,12.00
2019-03-22T00:11:53.337Z,12.00
2019-03-22T00:14:26.059Z,12.00
2019-03-22T00:16:58.563Z,11.90
2019-03-22T00:19:31.140Z,11.90
2019-03-22T00:22:05.806Z,11.90
2019-03-22T00:24:38.328Z,11.80
2019-03-22T00:27:16.667Z,11.80
2019-03-22T00:29:47.591Z,11.80
2019-03-22T00:32:20.199Z,11.70
2019-03-22T00:34:52.822Z,11.70
2019-03-22T00:37:25.579Z,11.70
2019-03-22T00:40:00.238Z,11.70
2019-03-22T00:42:36.313Z,11.90
2019-03-22T00:45:09.509Z,11.60
2019-03-22T00:47:42.002Z,11.50
2019-03-22T00:50:15.133Z,11.50
2019-03-22T00:52:47.734Z,11.50
2019-03-22T00:55:20.204Z,11.40
2019-03-22T00:57:52.745Z,11.40
2019-03-22T01:00:25.491Z,11.40
2019-03-22T01:02:58.188Z,11.40
2019-03-22T01:05:30.690Z,11.40
2019-03-22T01:08:03.370Z,11.30
2019-03-22T01:10:36.064Z,11.30
2019-03-22T01:13:08.551Z,11.30
2019-03-22T01:15:41.183Z,11.30
2019-03-22T01:18:13.854Z,11.30
2019-03-22T01:20:46.459Z,11.20
2019-03-22T01:23:24.585Z,11.20
2019-03-22T01:25:55.522Z,11.20
2019-03-22T01:28:28.288Z,11.10
2019-03-22T01:31:00.946Z,11.10
2019-03-22T01:33:33.476Z,11.10
2019-03-22T01:36:06.329Z,11.10
2019-03-22T01:38:38.947Z,11.00
2019-03-22T01:41:11.432Z,11.00
2019-03-22T01:43:44.020Z,11.00
2019-03-22T01:46:16.624Z,10.90
2019-03-22T01:48:49.134Z,11.50
2019-03-22T01:51:21.629Z,10.90
2019-03-22T01:53:54.302Z,10.90
2019-03-22T01:56:26.898Z,10.90
2019-03-22T01:58:59.559Z,10.80
2019-03-22T02:01:32.049Z,10.80
2019-03-22T02:04:04.517Z,10.80
2019-03-22T02:06:37.081Z,10.80
2019-03-22T02:09:10.261Z,10.70
2019-03-22T02:11:42.810Z,10.70
2019-03-22T02:14:15.288Z,10.70
2019-03-22T02:16:47.722Z,10.70
2019-03-22T02:19:20.608Z,10.70
2019-03-22T02:21:53.138Z,10.70
2019-03-22T02:24:25.672Z,10.70
2019-03-22T02:26:58.114Z,10.60
2019-03-22T02:29:30.690Z,10.60
2019-03-22T02:32:03.214Z,10.60
2019-03-22T02:34:35.696Z,10.60
2019-03-22T02:37:08.228Z,10.60
2019-03-22T02:39:41.160Z,10.60
2019-03-22T02:42:13.796Z,10.50
2019-03-22T02:44:46.462Z,10.50
2019-03-22T02:47:18.970Z,10.50
2019-03-22T02:49:51.494Z,10.50
2019-03-22T02:52:23.958Z,10.50
2019-03-22T02:54:56.438Z,10.50
2019-03-22T02:57:28.871Z,10.50
2019-03-22T03:00:01.364Z,10.50
2019-03-22T03:02:35.069Z,10.40
2019-03-22T03:05:08.685Z,10.40
2019-03-22T03:07:41.181Z,10.40
2019-03-22T03:10:14.144Z,10.40
2019-03-22T03:12:46.766Z,10.40
2019-03-22T03:15:19.246Z,10.40
2019-03-22T03:17:51.751Z,10.40
2019-03-22T03:20:24.232Z,10.30
2019-03-22T03:22:56.694Z,10.40
2019-03-22T03:25:29.157Z,10.30
2019-03-22T03:28:01.648Z,10.30
2019-03-22T03:30:34.237Z,10.30
2019-03-22T03:33:06.864Z,9.90
2019-03-22T03:35:39.342Z,10.30
2019-03-22T03:38:11.972Z,10.20
2019-03-22T03:40:44.433Z,10.20
2019-03-22T03:43:16.961Z,10.20
2019-03-22T03:45:49.470Z,10.20
2019-03-22T03:48:22.291Z,10.20
2019-03-22T03:50:54.941Z,10.20
2019-03-22T03:53:27.415Z,10.20
2019-03-22T03:55:59.873Z,10.20
2019-03-22T03:58:32.411Z,10.20
2019-03-22T04:01:04.953Z,10.10
2019-03-22T04:03:37.423Z,10.10
2019-03-22T04:06:12.329Z,10.10
2019-03-22T04:08:44.872Z,10.00
2019-03-22T04:11:17.347Z,10.00
2019-03-22T04:13:49.881Z,10.00
2019-03-22T04:16:22.372Z,10.10
2019-03-22T04:18:54.838Z,10.00
2019-03-22T04:21:27.349Z,10.00
2019-03-22T04:23:59.839Z,10.00
2019-03-22T04:26:32.318Z,10.00
2019-03-22T04:29:07.969Z,10.00
2019-03-22T04:31:39.092Z,10.00
2019-03-22T04:34:11.552Z,9.70
2019-03-22T04:36:44.063Z,10.00
2019-03-22T04:39:16.673Z,10.00
2019-03-22T04:41:49.454Z,10.00
2019-03-22T04:44:22.422Z,9.90
2019-03-22T04:46:55.845Z,9.90
2019-03-22T04:49:29.503Z,9.90
2019-03-22T04:52:02.234Z,9.90
2019-03-22T04:54:37.881Z,9.90
2019-03-22T04:57:12.976Z,9.90
2019-03-22T04:59:48.545Z,9.90
2019-03-22T05:02:21.916Z,9.90
2019-03-22T05:04:54.961Z,9.90
2019-03-22T05:07:27.630Z,9.90
2019-03-22T05:10:00.628Z,9.80
2019-03-22T05:12:34.104Z,9.80
2019-03-22T05:15:09.469Z,9.80
2019-03-22T05:17:43.241Z,9.80
2019-03-22T05:20:17.370Z,9.80
2019-03-22T05:22:51.151Z,9.80
2019-03-22T05:25:25.530Z,9.80
2019-03-22T05:28:00.303Z,9.80
2019-03-22T05:31:37.525Z,9.80
2019-03-22T05:34:10.231Z,9.80
2019-03-22T05:36:42.707Z,9.80
2019-03-22T05:39:15.231Z,9.70
2019-03-22T05:41:47.730Z,9.80
2019-03-22T05:44:20.249Z,9.80
2019-03-22T05:46:53.954Z,9.70
2019-03-22T05:49:26.431Z,9.70
2019-03-22T05:51:59.395Z,9.70
2019-03-22T05:54:31.898Z,9.70
2019-03-22T05:57:12.834Z,9.70
2019-03-22T05:59:42.648Z,9.70
2019-03-22T06:02:12.887Z,9.70
2019-03-22T06:04:45.420Z,9.70
2019-03-22T06:07:17.902Z,9.70
2019-03-22T06:09:50.361Z,9.70
2019-03-22T06:12:22.975Z,9.70
2019-03-22T06:14:55.603Z,9.70
2019-03-22T06:17:28.124Z,9.70
2019-03-22T06:20:00.657Z,9.70
2019-03-22T06:22:33.305Z,9.70
2019-03-22T06:25:06.210Z,9.70
2019-03-22T06:27:38.713Z,9.80
2019-03-22T06:30:12.140Z,9.80
2019-03-22T06:32:44.584Z,9.80
2019-03-22T06:35:17.073Z,9.90
2019-03-22T06:37:49.697Z,9.90
2019-03-22T06:40:22.202Z,10.00
2019-03-22T06:42:54.809Z,10.00
2019-03-22T06:45:27.364Z,10.10
2019-03-22T06:48:00.198Z,10.10
2019-03-22T06:50:33.941Z,10.20
2019-03-22T06:53:06.461Z,10.30
2019-03-22T06:55:39.195Z,10.30
2019-03-22T06:58:11.822Z,10.40
2019-03-22T07:00:44.315Z,10.50
2019-03-22T07:03:16.787Z,10.60
2019-03-22T07:05:49.715Z,10.60
2019-03-22T07:08:22.323Z,10.70
2019-03-22T07:10:54.734Z,10.80
2019-03-22T07:13:27.352Z,10.80
2019-03-22T07:16:00.249Z,10.90
2019-03-22T07:18:32.848Z,10.90
2019-03-22T07:21:05.422Z,11.00
2019-03-22T07:23:37.930Z,11.00
2019-03-22T07:26:10.550Z,11.10
2019-03-22T07:28:43.143Z,11.20
2019-03-22T07:31:15.637Z,11.50
2019-03-22T07:33:48.367Z,11.40
2019-03-22T07:36:20.859Z,11.50
2019-03-22T07:38:53.445Z,11.50
2019-03-22T07:41:25.987Z,11.60
2019-03-22T07:43:58.567Z,11.70
2019-03-22T07:46:31.106Z,11.80
2019-03-22T07:49:04.264Z,11.90
2019-03-22T07:51:36.983Z,11.90
2019-03-22T07:54:09.528Z,12.10
2019-03-22T07:56:42.038Z,12.20
2019-03-22T07:59:14.621Z,12.30
2019-03-22T08:01:48.327Z,12.40
2019-03-22T08:04:20.961Z,12.50
2019-03-22T08:06:54.836Z,12.60
2019-03-22T08:09:27.395Z,12.70
2019-03-22T08:12:00.075Z,12.80
2019-03-22T08:14:34.139Z,12.90
2019-03-22T08:17:06.773Z,13.00
2019-03-22T08:19:39.311Z,13.10
2019-03-22T08:22:11.969Z,13.30
2019-03-22T08:24:44.515Z,13.40
2019-03-22T08:27:17.042Z,13.50
2019-03-22T08:29:49.619Z,13.60
2019-03-22T08:32:22.127Z,13.80
2019-03-22T08:34:55.563Z,13.90
2019-03-22T08:37:28.010Z,14.00
2019-03-22T08:40:00.523Z,14.40
2019-03-22T08:42:33.057Z,14.20
2019-03-22T08:45:05.822Z,14.40
2019-03-22T08:47:38.500Z,14.90
2019-03-22T08:50:11.289Z,14.60
2019-03-22T08:52:43.900Z,14.70
2019-03-22T08:55:16.534Z,14.80
2019-03-22T08:57:49.047Z,14.90
2019-03-22T09:00:21.781Z,15.00
2019-03-22T09:02:54.297Z,15.20
2019-03-22T09:05:27.915Z,15.30
2019-03-22T09:08:00.552Z,15.40
2019-03-22T09:10:33.097Z,15.60
2019-03-22T09:13:05.742Z,15.70
2019-03-22T09:15:41.930Z,15.90
2019-03-22T09:18:15.405Z,16.10
2019-03-22T09:20:47.121Z,16.30
2019-03-22T09:23:19.712Z,16.40
2019-03-22T09:25:52.302Z,16.60
2019-03-22T09:28:24.888Z,16.80
2019-03-22T09:31:09.443Z,17.00
2019-03-22T09:33:31.589Z,17.10
2019-03-22T09:36:04.133Z,17.30
2019-03-22T09:38:36.743Z,17.50
2019-03-22T09:41:09.621Z,17.70
2019-03-22T09:43:42.308Z,17.90
2019-03-22T09:46:15.372Z,18.20
2019-03-22T09:48:48.105Z,18.50
2019-03-22T09:51:21.956Z,18.80
2019-03-22T09:53:54.664Z,19.10
2019-03-22T09:56:27.318Z,19.50
2019-03-22T09:59:00.010Z,19.90
2019-03-22T10:01:32.811Z,20.40
2019-03-22T10:04:05.703Z,20.80
2019-03-22T10:06:39.452Z,21.20
2019-03-22T10:09:16.033Z,21.70
2019-03-22T10:11:48.602Z,22.20
2019-03-22T10:14:21.635Z,22.60
2019-03-22T10:16:54.215Z,23.10
2019-03-22T10:19:26.900Z,23.60
2019-03-22T10:22:00.043Z,24.10
2019-03-22T10:24:32.604Z,24.50
2019-03-22T10:27:05.471Z,25.00
2019-03-22T10:29:38.149Z,25.40
2019-03-22T10:32:10.777Z,25.80
2019-03-22T10:34:43.394Z,26.30
2019-03-22T10:37:15.999Z,26.70
2019-03-22T10:39:49.072Z,27.10
2019-03-22T10:42:21.676Z,27.60
2019-03-22T10:44:55.855Z,28.00
2019-03-22T10:47:29.023Z,28.40
2019-03-22T10:50:02.342Z,28.70
2019-03-22T10:52:35.544Z,29.10
2019-03-22T10:55:28.472Z,29.40
2019-03-22T10:57:44.905Z,29.60
2019-03-22T11:00:19.497Z,29.90
2019-03-22T11:02:52.673Z,30.00
2019-03-22T11:05:25.933Z,30.10
2019-03-22T11:07:59.110Z,30.30
2019-03-22T11:10:32.219Z,30.50
2019-03-22T11:13:05.694Z,30.80
2019-03-22T11:15:48.081Z,31.10
2019-03-22T11:18:13.603Z,31.40
2019-03-22T11:20:47.018Z,31.70
2019-03-22T11:23:20.086Z,32.10
2019-03-22T11:25:53.291Z,32.40
2019-03-22T11:28:26.544Z,32.70
2019-03-22T11:31:04.719Z,32.90
2019-03-22T11:33:34.932Z,33.20
2019-03-22T11:36:08.061Z,33.40
2019-03-22T11:38:41.251Z,33.60
2019-03-22T11:41:14.390Z,33.80
2019-03-22T11:43:47.546Z,34.00
2019-03-22T11:46:20.722Z,34.20
2019-03-22T11:48:53.893Z,34.40
2019-03-22T11:51:27.187Z,34.50
2019-03-22T11:54:00.428Z,34.80
2019-03-22T11:56:33.590Z,34.90
2019-03-22T11:59:06.666Z,35.00
2019-03-22T12:01:39.904Z,35.20
2019-03-22T12:04:12.978Z,35.40
2019-03-22T12:06:47.324Z,35.50
2019-03-22T12:09:20.411Z,35.70
2019-03-22T12:11:53.546Z,35.90
2019-03-22T12:14:26.727Z,36.10
2019-03-22T12:17:00.314Z,36.30
2019-03-22T12:19:34.446Z,36.50
2019-03-22T12:22:07.921Z,36.60
2019-03-22T12:24:41.157Z,36.80
2019-03-22T12:27:14.267Z,36.90
2019-03-22T12:29:47.522Z,37.00
2019-03-22T12:32:20.770Z,37.00
2019-03-22T12:34:54.209Z,37.10
2019-03-22T12:37:29.280Z,37.10
2019-03-22T12:40:02.511Z,37.10
2019-03-22T12:42:35.757Z,37.10
2019-03-22T12:45:13.518Z,37.10
2019-03-22T12:47:46.753Z,37.10
2019-03-22T12:50:20.009Z,37.10
2019-03-22T12:52:53.968Z,37.10
2019-03-22T12:55:27.184Z,37.10
2019-03-22T12:58:00.372Z,37.10
2019-03-22T13:00:34.165Z,37.00
2019-03-22T13:03:08.565Z,36.80
2019-03-22T13:05:44.223Z,36.70
2019-03-22T13:08:17.310Z,36.60
2019-03-22T13:10:51.217Z,36.60
2019-03-22T13:13:24.368Z,36.70
2019-03-22T13:15:57.479Z,36.80
2019-03-22T13:18:30.706Z,36.90
2019-03-22T13:21:03.853Z,37.00
2019-03-22T13:23:37.094Z,37.00
2019-03-22T13:26:10.260Z,36.80
2019-03-22T13:28:44.584Z,36.50
2019-03-22T13:31:19.227Z,36.30
2019-03-22T13:33:52.364Z,36.10
2019-03-22T13:36:25.505Z,35.70
2019-03-22T13:38:58.620Z,35.40
2019-03-22T13:41:31.842Z,35.00
2019-03-22T13:44:05.183Z,35.20
2019-03-22T13:46:40.446Z,34.10
2019-03-22T13:49:13.393Z,33.80
2019-03-22T13:51:46.581Z,33.40
2019-03-22T13:54:19.790Z,33.00
2019-03-22T13:56:52.887Z,32.70
2019-03-22T13:59:26.144Z,32.40
2019-03-22T14:01:59.360Z,32.10
2019-03-22T14:04:32.416Z,31.70
2019-03-22T14:07:05.727Z,31.40
2019-03-22T14:09:39.033Z,31.00
2019-03-22T14:12:14.165Z,30.70
2019-03-22T14:14:46.775Z,30.30
2019-03-22T14:17:20.120Z,30.00
2019-03-22T14:19:53.310Z,29.70
2019-03-22T14:22:26.634Z,29.60
2019-03-22T14:24:59.836Z,29.70
2019-03-22T14:27:32.991Z,29.90
2019-03-22T14:30:07.428Z,29.80
2019-03-22T14:32:40.635Z,30.20
2019-03-22T14:35:13.904Z,30.20
2019-03-22T14:37:48.831Z,30.50
2019-03-22T14:40:21.997Z,30.70
2019-03-22T14:42:55.130Z,30.80
2019-03-22T14:45:28.386Z,30.90
2019-03-22T14:48:01.672Z,30.80
2019-03-22T14:50:35.029Z,30.60
2019-03-22T14:53:08.374Z,30.40
2019-03-22T14:55:41.418Z,30.10
2019-03-22T14:58:14.721Z,29.90
2019-03-22T15:00:47.839Z,29.80
2019-03-22T15:03:28.101Z,29.80
2019-03-22T15:06:01.430Z,29.90
2019-03-22T15:08:34.581Z,29.80
2019-03-22T15:11:07.792Z,29.70
2019-03-22T15:13:49.753Z,29.50
2019-03-22T15:16:39.948Z,29.40
2019-03-22T15:19:34.254Z,29.20
2019-03-22T15:22:15.134Z,28.90
2019-03-22T15:25:06.821Z,28.60
2019-03-22T15:28:01.340Z,28.30
2019-03-22T15:31:02.690Z,28.10
2019-03-22T15:33:50.615Z,27.90
2019-03-22T15:36:40.992Z,27.60
2019-03-22T15:39:41.367Z,27.30
2019-03-22T15:42:15.173Z,27.00
2019-03-22T15:44:47.835Z,26.80
2019-03-22T15:47:20.876Z,26.60
2019-03-22T15:49:53.600Z,26.40
2019-03-22T15:52:26.387Z,26.30
2019-03-22T15:54:59.062Z,26.10
2019-03-22T15:57:31.727Z,25.90
2019-03-22T16:00:07.950Z,25.80
2019-03-22T16:02:41.905Z,25.70
2019-03-22T16:05:15.640Z,25.60
2019-03-22T16:07:48.335Z,25.50
2019-03-22T16:10:21.132Z,25.40
2019-03-22T16:12:55.167Z,25.30
2019-03-22T16:15:27.892Z,25.20
2019-03-22T16:18:00.614Z,25.10
2019-03-22T16:20:33.951Z,25.00
2019-03-22T16:23:06.550Z,24.90
2019-03-22T16:25:39.305Z,24.80
2019-03-22T16:28:11.963Z,24.80
2019-03-22T16:30:44.674Z,24.70
2019-03-22T16:33:17.286Z,24.60
2019-03-22T16:35:49.895Z,24.50
2019-03-22T16:38:22.646Z,24.40
2019-03-22T16:40:55.431Z,24.40
2019-03-22T16:43:28.103Z,24.40
2019-03-22T16:46:00.769Z,24.30
2019-03-22T16:48:33.474Z,24.40
2019-03-22T16:51:06.226Z,24.30
2019-03-22T16:53:38.826Z,24.20
2019-03-22T16:56:11.484Z,24.20
2019-03-22T16:58:44.043Z,24.10
2019-03-22T17:01:16.691Z,24.00
2019-03-22T17:03:49.446Z,23.90
2019-03-22T17:06:23.196Z,23.80
2019-03-22T17:08:56.000Z,23.70
2019-03-22T17:11:28.722Z,23.70
2019-03-22T17:14:02.452Z,23.60
2019-03-22T17:16:36.141Z,23.50
2019-03-22T17:19:08.791Z,23.50
2019-03-22T17:21:41.462Z,23.40
2019-03-22T17:24:14.145Z,23.30
2019-03-22T17:26:48.666Z,23.30
2019-03-22T17:29:21.350Z,23.20
2019-03-22T17:31:54.028Z,23.10
2019-03-22T17:34:26.738Z,23.00
2019-03-22T17:36:59.440Z,22.90
2019-03-22T17:39:31.991Z,22.80
2019-03-22T17:42:04.717Z,22.80
2019-03-22T17:44:40.346Z,22.70
2019-03-22T17:47:13.031Z,22.60
2019-03-22T17:49:48.351Z,22.50
2019-03-22T17:52:19.932Z,22.50
2019-03-22T17:54:52.603Z,22.40
2019-03-22T17:57:26.624Z,22.30
2019-03-22T17:59:59.330Z,22.30
2019-03-22T18:02:31.932Z,22.20
2019-03-22T18:05:04.892Z,22.10
2019-03-22T18:07:37.695Z,22.10
2019-03-22T18:10:12.212Z,22.00
2019-03-22T18:12:44.877Z,21.90
2019-03-22T18:15:17.602Z,21.90
2019-03-22T18:17:53.137Z,21.80
2019-03-22T18:20:25.963Z,21.70
2019-03-22T18:23:00.419Z,21.60
2019-03-22T18:25:33.193Z,21.50
2019-03-22T18:28:05.933Z,21.50
2019-03-22T18:30:39.686Z,21.40
2019-03-22T18:33:12.348Z,21.30
2019-03-22T18:35:44.960Z,21.30
2019-03-22T18:38:17.524Z,21.20
2019-03-22T18:40:50.064Z,21.10
2019-03-22T18:43:22.598Z,21.00
2019-03-22T18:45:58.516Z,21.00
2019-03-22T18:48:30.815Z,20.90
2019-03-22T18:51:03.478Z,20.80
2019-03-22T18:53:36.069Z,20.60
2019-03-22T18:56:08.667Z,20.50
2019-03-22T18:58:41.382Z,20.40
2019-03-22T19:01:13.935Z,20.30
2019-03-22T19:03:46.914Z,20.20
2019-03-22T19:06:21.732Z,20.00
2019-03-22T19:08:53.832Z,19.90
2019-03-22T19:11:26.514Z,19.80
2019-03-22T19:13:59.212Z,19.70
2019-03-22T19:16:31.886Z,19.50
2019-03-22T19:19:04.427Z,19.40
2019-03-22T19:21:37.189Z,19.30
2019-03-22T19:24:09.707Z,19.20
2019-03-22T19:26:42.312Z,19.10
2019-03-22T19:29:15.216Z,19.00
2019-03-22T19:31:48.867Z,18.90
2019-03-22T19:34:21.672Z,18.80
2019-03-22T19:36:54.254Z,18.70
2019-03-22T19:39:26.962Z,18.60
2019-03-22T19:41:59.690Z,18.50
2019-03-22T19:44:32.483Z,18.50
2019-03-22T19:47:05.305Z,18.40
2019-03-22T19:49:38.079Z,18.30
2019-03-22T19:52:10.689Z,18.20
2019-03-22T19:54:43.401Z,18.20
2019-03-22T19:57:17.009Z,18.10
2019-03-22T19:59:50.629Z,18.00
2019-03-22T20:02:23.313Z,17.90
2019-03-22T20:05:04.463Z,17.90
2019-03-22T20:07:32.264Z,17.70
2019-03-22T20:10:05.717Z,17.70
2019-03-22T20:12:38.385Z,17.60
2019-03-22T20:15:11.669Z,17.50
2019-03-22T20:17:44.316Z,17.40
2019-03-22T20:20:17.455Z,17.40
2019-03-22T20:22:50.108Z,17.30
2019-03-22T20:25:22.882Z,17.20
2019-03-22T20:27:55.532Z,17.20
2019-03-22T20:30:29.441Z,17.10
2019-03-22T20:33:02.036Z,17.00
2019-03-22T20:35:34.752Z,17.00
2019-03-22T20:38:09.207Z,16.90
2019-03-22T20:40:41.887Z,16.90
2019-03-22T20:43:14.590Z,16.80
2019-03-22T20:45:47.122Z,16.80
2019-03-22T20:48:20.080Z,16.70
2019-03-22T20:50:52.715Z,16.60
2019-03-22T20:53:25.375Z,16.60
2019-03-22T20:55:58.152Z,16.50
2019-03-22T20:58:32.209Z,16.40
2019-03-22T21:01:06.332Z,16.40
2019-03-22T21:03:40.102Z,16.90
2019-03-22T21:06:12.788Z,16.30
2019-03-22T21:08:45.510Z,16.30
2019-03-22T21:11:18.413Z,16.20
2019-03-22T21:13:51.139Z,16.20
2019-03-22T21:16:26.659Z,16.10
2019-03-22T21:18:59.489Z,16.10
2019-03-22T21:21:36.679Z,16.10
2019-03-22T21:24:08.735Z,16.00
2019-03-22T21:26:40.844Z,15.90
2019-03-22T21:29:13.498Z,15.90
2019-03-22T21:31:47.331Z,15.80
2019-03-22T21:34:19.897Z,15.80
2019-03-22T21:36:52.608Z,15.70
2019-03-22T21:39:25.409Z,15.70
2019-03-22T21:41:58.217Z,15.70
2019-03-22T21:44:30.793Z,15.70
2019-03-22T21:47:03.498Z,15.70
2019-03-22T21:49:36.114Z,15.60
2019-03-22T21:52:08.729Z,15.60
2019-03-22T21:54:41.624Z,15.60
2019-03-22T21:57:14.339Z,15.60
2019-03-22T21:59:47.015Z,15.60
2019-03-22T22:02:19.840Z,15.60
2019-03-22T22:04:52.566Z,15.60
2019-03-22T22:07:25.240Z,15.60
2019-03-22T22:09:57.852Z,15.60
2019-03-22T22:12:30.451Z,15.50
2019-03-22T22:15:02.995Z,15.50
2019-03-22T22:17:35.698Z,15.40
2019-03-22T22:20:08.541Z,15.40
2019-03-22T22:22:41.914Z,15.30
2019-03-22T22:25:14.682Z,15.30
2019-03-22T22:27:47.248Z,15.30
2019-03-22T22:30:19.940Z,15.20
2019-03-22T22:32:53.989Z,15.20
2019-03-22T22:35:26.651Z,15.10
2019-03-22T22:37:59.451Z,15.10
2019-03-22T22:40:31.981Z,15.00
2019-03-22T22:43:06.442Z,14.90
2019-03-22T22:45:39.104Z,14.80
2019-03-22T22:48:11.765Z,14.80
2019-03-22T22:50:44.887Z,14.60
2019-03-22T22:53:17.508Z,14.60
2019-03-22T22:55:50.107Z,14.50
2019-03-22T22:58:22.710Z,14.40
2019-03-22T23:00:55.344Z,14.40
2019-03-22T23:03:28.009Z,14.30
2019-03-22T23:06:09.052Z,14.20
2019-03-22T23:08:35.164Z,14.20
2019-03-22T23:11:07.981Z,14.20
2019-03-22T23:13:40.543Z,14.20
2019-03-22T23:16:13.206Z,14.20
2019-03-22T23:18:45.894Z,14.20
2019-03-22T23:21:18.557Z,14.20
2019-03-22T23:23:51.056Z,14.20
2019-03-22T23:26:23.610Z,14.10
2019-03-22T23:28:56.154Z,14.10
2019-03-22T23:31:30.471Z,14.10
2019-03-22T23:34:04.202Z,14.10
2019-03-22T23:36:36.811Z,14.10
2019-03-22T23:39:10.578Z,14.00
2019-03-22T23:41:43.132Z,14.00
2019-03-22T23:44:15.931Z,14.00
2019-03-22T23:46:48.593Z,14.00
2019-03-22T23:49:21.545Z,14.00
2019-03-22T23:51:54.313Z,13.60
2019-03-22T23:54:26.937Z,14.00
2019-03-22T23:56:59.683Z,13.90
2019-03-22T23:59:32.220Z,13.90
